Time;durP1;ratioP1;P1;durP2;ratioP2;P2;SDS_P1;SDS_P2;PMS_P1;PMS_P2;Temp;Humidity;BMP_temperature;BMP_pressure;BME280_temperature;BME280_humidity;BME280_pressure;Samples;Min_cycle;Max_cycle;Signal;HPM_P1;HPM_P2
2024/04/11 00:01:16;;;;;;;7.10;2.63;;;12.60;1.00;;;;;;5452321;26;20236;-64
2024/04/11 00:03:49;;;;;;;8.33;2.33;;;12.60;99.90;;;;;;5454174;26;20249;-63
2024/04/11 00:06:18;;;;;;;8.93;2.90;;;12.60;1.00;;;;;;5452428;25;20846;-63
2024/04/11 00:08:48;;;;;;;7.77;2.67;;;12.60;4.80;;;;;;5459920;26;20616;-63
2024/04/11 00:11:15;;;;;;;8.37;2.40;;;12.60;99.90;;;;;;5452492;26;20264;-62
2024/04/11 00:13:46;;;;;;;6.47;2.47;;;12.60;1.00;;;;;;5450768;26;20301;-62
2024/04/11 00:16:13;;;;;;;10.63;2.50;;;12.60;1.00;;;;;;5446949;26;21051;-63
2024/04/11 00:18:44;;;;;;;11.53;3.10;;;12.60;1.00;;;;;;5448494;26;20333;-63
2024/04/11 00:21:16;;;;;;;13.83;2.63;;;12.60;99.90;;;;;;5458208;25;20252;-63
2024/04/11 00:23:49;;;;;;;10.00;2.73;;;12.60;99.90;;;;;;5447038;26;20308;-63
2024/04/11 00:26:17;;;;;;;5.57;2.10;;;12.60;99.90;;;;;;5447769;26;20357;-63
2024/04/11 00:28:47;;;;;;;9.33;2.40;;;12.60;1.00;;;;;;5446312;26;20230;-62
2024/04/11 00:31:15;;;;;;;8.70;2.47;;;12.60;99.90;;;;;;5453987;26;20271;-63
2024/04/11 00:33:54;;;;;;;4.30;2.10;;;12.60;1.00;;;;;;5453351;26;20257;-63
2024/04/11 00:36:26;;;;;;;4.20;2.33;;;12.60;1.00;;;;;;5445846;26;20245;-63
2024/04/11 00:38:57;;;;;;;5.33;2.30;;;12.60;1.00;;;;;;5450714;25;20251;-63
2024/04/11 00:41:25;;;;;;;7.50;2.13;;;12.60;1.00;;;;;;5457016;25;20249;-63
2024/04/11 00:43:55;;;;;;;7.83;2.20;;;12.70;1.00;;;;;;5457489;26;20643;-62
2024/04/11 00:46:23;;;;;;;7.67;2.37;;;12.70;99.90;;;;;;5454309;26;20245;-63
2024/04/11 00:48:54;;;;;;;7.00;2.50;;;12.70;1.00;;;;;;5452668;25;20309;-63
2024/04/11 00:51:22;;;;;;;4.70;2.40;;;12.70;1.00;;;;;;5456178;26;20269;-63
2024/04/11 00:53:58;;;;;;;6.57;2.00;;;12.70;99.90;;;;;;5461783;26;20334;-63
2024/04/11 00:56:26;;;;;;;5.27;2.47;;;12.70;1.00;;;;;;5461579;25;20248;-63
2024/04/11 00:58:58;;;;;;;5.47;2.33;;;12.60;1.00;;;;;;5460969;26;20299;-62
2024/04/11 01:01:26;;;;;;;5.57;2.00;;;12.60;1.00;;;;;;5449775;26;20232;-63
2024/04/11 01:03:56;;;;;;;5.57;2.17;;;12.60;1.00;;;;;;5441442;26;20740;-63
2024/04/11 01:06:24;;;;;;;5.23;2.10;;;12.60;1.00;;;;;;5461052;26;20251;-63
2024/04/11 01:08:57;;;;;;;7.00;2.77;;;12.70;1.00;;;;;;5458041;26;20248;-63
2024/04/11 01:11:25;;;;;;;9.00;2.47;;;12.60;1.00;;;;;;5454436;26;20361;-63
2024/04/11 01:13:56;;;;;;;6.63;2.03;;;12.60;1.00;;;;;;5447535;26;20245;-63
2024/04/11 01:16:25;;;;;;;7.27;2.20;;;12.60;1.00;;;;;;5447898;26;20238;-64
2024/04/11 01:18:59;;;;;;;6.13;2.53;;;12.60;88.20;;;;;;5444497;26;20290;-64
2024/04/11 01:21:26;;;;;;;4.07;2.30;;;12.60;99.90;;;;;;5453965;26;20295;-64
2024/04/11 01:23:59;;;;;;;3.93;1.80;;;12.60;1.00;;;;;;5454533;26;20269;-63
2024/04/11 01:26:27;;;;;;;4.30;2.10;;;12.50;99.90;;;;;;5457274;25;20260;-63
2024/04/11 01:28:58;;;;;;;6.93;1.97;;;12.60;1.00;;;;;;5461985;25;20275;-62
2024/04/11 01:31:25;;;;;;;6.83;2.57;;;12.60;1.00;;;;;;5456983;26;20240;-63
2024/04/11 01:33:55;;;;;;;7.93;2.70;;;12.60;1.00;;;;;;5448335;26;20285;-63
2024/04/11 01:36:23;;;;;;;12.57;2.47;;;12.60;1.00;;;;;;5442436;26;20290;-63
2024/04/11 01:38:53;;;;;;;6.03;2.93;;;12.60;1.00;;;;;;5449735;25;20248;-63
2024/04/11 01:41:24;;;;;;;8.90;2.13;;;12.50;1.00;;;;;;5454987;26;20280;-63
2024/04/11 01:43:54;;;;;;;14.37;2.90;;;12.50;1.00;;;;;;5456483;26;20238;-63
2024/04/11 01:46:22;;;;;;;6.60;2.20;;;12.50;1.00;;;;;;5450658;26;20285;-63
2024/04/11 01:48:53;;;;;;;5.17;2.13;;;12.50;1.00;;;;;;5452938;26;20252;-63
2024/04/11 01:51:20;;;;;;;7.20;2.23;;;12.50;1.00;;;;;;5457128;26;20279;-63
2024/04/11 01:53:50;;;;;;;4.10;2.30;;;12.50;1.00;;;;;;5451584;26;20313;-64
2024/04/11 01:56:18;;;;;;;6.50;2.30;;;12.50;1.00;;;;;;5455142;26;20918;-64
2024/04/11 01:58:51;;;;;;;6.60;2.27;;;12.50;1.00;;;;;;5455327;25;20232;-63
2024/04/11 02:01:20;;;;;;;5.77;2.17;;;12.60;1.00;;;;;;5450872;26;20301;-63
2024/04/11 02:03:53;;;;;;;6.87;2.20;;;12.50;1.00;;;;;;5446931;26;20249;-62
2024/04/11 02:06:22;;;;;;;7.27;2.30;;;12.50;78.30;;;;;;5451503;26;20248;-63
2024/04/11 02:08:56;;;;;;;7.93;2.40;;;12.50;59.90;;;;;;5456664;26;20403;-63
2024/04/11 02:11:25;;;;;;;7.60;2.43;;;12.50;99.90;;;;;;5455971;26;20248;-63
2024/04/11 02:13:58;;;;;;;8.37;2.30;;;12.50;99.90;;;;;;5457363;26;20249;-63
2024/04/11 02:16:28;;;;;;;8.47;2.00;;;12.50;99.90;;;;;;5460913;26;20237;-63
2024/04/11 02:18:58;;;;;;;4.07;2.50;;;12.40;99.90;;;;;;5456756;26;20253;-63
2024/04/11 02:21:26;;;;;;;5.43;2.10;;;12.50;99.90;;;;;;5452747;26;20287;-63
2024/04/11 02:23:56;;;;;;;6.73;2.37;;;12.50;99.90;;;;;;5454295;26;20261;-63
2024/04/11 02:26:29;;;;;;;3.63;2.10;;;12.50;99.90;;;;;;5458190;25;20827;-63
2024/04/11 02:29:02;;;;;;;9.80;2.10;;;12.50;99.90;;;;;;5446022;26;20237;-63
2024/04/11 02:31:30;;;;;;;6.03;2.00;;;12.50;99.90;;;;;;5454715;26;20255;-63
2024/04/11 02:34:00;;;;;;;4.57;2.23;;;12.40;1.00;;;;;;5455739;26;20296;-64
2024/04/11 02:36:29;;;;;;;9.20;2.20;;;12.50;1.00;;;;;;5449220;26;20256;-63
2024/04/11 02:39:00;;;;;;;2.83;1.70;;;12.50;1.00;;;;;;5443600;26;20349;-63
2024/04/11 02:41:28;;;;;;;7.87;2.60;;;12.40;1.00;;;;;;5444851;26;20698;-63
2024/04/11 02:44:01;;;;;;;4.60;2.00;;;12.40;1.00;;;;;;5449110;26;20608;-63
2024/04/11 02:46:28;;;;;;;6.60;2.70;;;12.40;1.00;;;;;;5447494;26;20237;-63
2024/04/11 02:48:59;;;;;;;5.53;2.13;;;12.40;1.00;;;;;;5456824;26;20336;-64
2024/04/11 02:51:27;;;;;;;4.40;2.20;;;12.30;1.00;;;;;;5458659;25;20295;-63
2024/04/11 02:53:57;;;;;;;7.40;2.23;;;12.40;1.00;;;;;;5448526;26;20330;-63
2024/04/11 02:56:26;;;;;;;3.73;2.10;;;12.30;1.00;;;;;;5448591;26;20257;-63
2024/04/11 02:58:57;;;;;;;5.37;2.47;;;12.30;1.00;;;;;;5460672;25;20324;-63
2024/04/11 03:01:28;;;;;;;10.43;2.20;;;12.30;1.00;;;;;;5449091;26;20274;-63
2024/04/11 03:04:01;;;;;;;5.13;2.60;;;12.20;1.00;;;;;;5446229;26;20308;-63
2024/04/11 03:06:31;;;;;;;9.90;2.50;;;12.20;1.00;;;;;;5454419;26;20249;-63
2024/04/11 03:09:03;;;;;;;5.73;2.60;;;12.20;1.00;;;;;;5451898;25;20249;-63
2024/04/11 03:11:34;;;;;;;7.00;2.70;;;12.20;1.00;;;;;;5450177;26;20349;-63
2024/04/11 03:14:06;;;;;;;5.37;2.10;;;12.10;1.00;;;;;;5450988;26;20643;-64
2024/04/11 03:16:37;;;;;;;6.77;2.40;;;12.20;1.00;;;;;;5454440;26;20288;-63
2024/04/11 03:19:08;;;;;;;6.10;2.30;;;12.10;1.00;;;;;;5445693;26;20241;-63
2024/04/11 03:21:35;;;;;;;7.03;2.87;;;12.10;1.00;;;;;;5456273;26;20269;-63
2024/04/11 03:24:06;;;;;;;5.67;2.30;;;12.10;1.00;;;;;;5452244;25;20361;-63
2024/04/11 03:26:33;;;;;;;8.00;2.30;;;12.00;1.00;;;;;;5450953;26;20363;-64
2024/04/11 03:29:04;;;;;;;4.97;2.50;;;12.10;1.00;;;;;;5445498;26;20356;-63
2024/04/11 03:31:31;;;;;;;9.07;2.30;;;12.10;1.00;;;;;;5455740;26;20293;-63
2024/04/11 03:34:04;;;;;;;7.27;2.90;;;12.10;1.00;;;;;;5451627;25;20294;-63
2024/04/11 03:36:33;;;;;;;5.30;2.60;;;12.10;1.00;;;;;;5456135;26;20265;-64
2024/04/11 03:39:11;;;;;;;5.07;2.27;;;12.10;1.00;;;;;;5458291;25;20320;-63
2024/04/11 03:41:40;;;;;;;3.10;2.13;;;12.20;1.00;;;;;;5451368;26;20249;-63
2024/04/11 03:44:10;;;;;;;7.07;2.20;;;12.20;1.00;;;;;;5453272;26;20256;-63
2024/04/11 03:46:41;;;;;;;6.67;2.37;;;12.20;1.00;;;;;;5454679;26;20259;-63
2024/04/11 03:49:14;;;;;;;7.20;2.20;;;12.20;1.00;;;;;;5449640;26;20756;-63
2024/04/11 03:51:49;;;;;;;4.37;2.20;;;12.20;1.00;;;;;;5447080;26;20248;-63
2024/04/11 03:54:22;;;;;;;7.80;2.07;;;12.10;1.00;;;;;;5447689;26;20307;-64
2024/04/11 03:56:50;;;;;;;3.93;2.27;;;12.10;1.00;;;;;;5450380;26;20474;-63
2024/04/11 03:59:21;;;;;;;5.67;2.20;;;12.10;1.00;;;;;;5450954;25;20312;-64
2024/04/11 04:01:49;;;;;;;7.00;2.20;;;12.10;1.00;;;;;;5445134;26;20343;-63
2024/04/11 04:04:25;;;;;;;6.80;2.20;;;12.10;1.00;;;;;;5450753;26;20230;-63
2024/04/11 04:06:53;;;;;;;8.47;2.40;;;12.10;1.00;;;;;;5451610;26;20256;-64
2024/04/11 04:09:23;;;;;;;5.43;2.20;;;12.10;1.00;;;;;;5444913;26;20635;-63
2024/04/11 04:11:51;;;;;;;8.03;2.40;;;12.10;1.00;;;;;;5451101;26;20257;-64
2024/04/11 04:14:21;;;;;;;7.73;2.47;;;12.10;1.00;;;;;;5442202;26;20296;-63
2024/04/11 04:16:49;;;;;;;7.93;2.23;;;12.10;1.00;;;;;;5450227;26;20257;-64
2024/04/11 04:19:19;;;;;;;5.73;2.23;;;12.00;1.00;;;;;;5455150;26;20229;-63
2024/04/11 04:21:50;;;;;;;9.30;2.33;;;12.10;1.00;;;;;;5454246;26;20249;-63
2024/04/11 04:24:31;;;;;;;5.20;2.63;;;12.00;1.00;;;;;;5456106;25;20312;-64
2024/04/11 04:26:59;;;;;;;8.93;2.23;;;12.00;1.00;;;;;;5439648;26;20579;-64
2024/04/11 04:29:29;;;;;;;6.30;2.40;;;11.90;1.00;;;;;;5450763;25;20622;-63
2024/04/11 04:31:57;;;;;;;6.63;2.53;;;11.90;1.00;;;;;;5456253;25;20646;-63
2024/04/11 04:34:28;;;;;;;5.33;2.30;;;11.90;1.00;;;;;;5449379;26;20268;-64
2024/04/11 04:37:01;;;;;;;8.10;2.47;;;11.90;1.00;;;;;;5447793;26;20253;-63
2024/04/11 04:39:41;;;;;;;2.93;2.10;;;11.90;1.40;;;;;;5458632;26;20293;-64
2024/04/11 04:42:08;;;;;;;12.43;2.40;;;11.90;9.00;;;;;;5442550;26;20799;-64
2024/04/11 04:44:40;;;;;;;9.53;2.73;;;11.90;12.40;;;;;;5448515;26;20258;-64
2024/04/11 04:47:16;;;;;;;9.10;2.73;;;11.90;18.60;;;;;;5453005;26;20269;-64
2024/04/11 04:49:47;;;;;;;6.37;2.10;;;11.90;18.50;;;;;;5442096;26;20293;-63
2024/04/11 04:52:18;;;;;;;4.00;2.00;;;12.00;16.40;;;;;;5451186;26;20245;-64
2024/04/11 04:54:50;;;;;;;10.50;2.80;;;11.90;25.70;;;;;;5446423;26;20311;-64
2024/04/11 04:57:19;;;;;;;4.57;2.50;;;11.90;28.50;;;;;;5448200;25;20354;-64
2024/04/11 04:59:49;;;;;;;11.47;2.70;;;11.90;32.30;;;;;;5444968;26;20256;-64
2024/04/11 05:02:17;;;;;;;7.00;2.60;;;11.90;36.20;;;;;;5447958;26;20271;-64
2024/04/11 05:04:49;;;;;;;6.63;2.50;;;11.90;44.00;;;;;;5446607;26;20237;-63
2024/04/11 05:07:20;;;;;;;5.23;2.20;;;11.90;47.80;;;;;;5454558;26;20575;-64
2024/04/11 05:09:50;;;;;;;8.83;2.77;;;11.90;53.60;;;;;;5446391;26;20321;-64
2024/04/11 05:12:19;;;;;;;7.20;2.70;;;11.90;55.40;;;;;;5453105;26;20257;-64
2024/04/11 05:14:52;;;;;;;6.57;2.37;;;11.90;65.00;;;;;;5446322;26;20249;-63
2024/04/11 05:17:21;;;;;;;6.37;2.47;;;12.00;65.60;;;;;;5448097;26;20922;-64
2024/04/11 05:19:51;;;;;;;7.90;2.73;;;12.00;66.50;;;;;;5444659;26;20790;-63
2024/04/11 05:22:23;;;;;;;13.53;3.13;;;12.00;69.20;;;;;;5453994;26;20229;-64
2024/04/11 05:24:53;;;;;;;7.17;2.70;;;12.00;71.20;;;;;;5447623;26;20253;-64
2024/04/11 05:27:20;;;;;;;11.10;2.73;;;12.00;75.80;;;;;;5476251;26;20264;-63
2024/04/11 05:29:51;;;;;;;5.33;2.80;;;12.00;78.50;;;;;;5452540;25;20268;-64
2024/04/11 05:32:18;;;;;;;7.87;2.57;;;12.10;75.30;;;;;;5457183;26;20703;-63
2024/04/11 05:34:49;;;;;;;8.53;2.77;;;12.10;79.30;;;;;;5447003;26;20245;-62
2024/04/11 05:37:17;;;;;;;9.10;2.37;;;12.10;81.30;;;;;;5450831;26;20241;-63
2024/04/11 05:39:50;;;;;;;5.40;2.53;;;12.10;83.80;;;;;;5438146;26;20256;-63
2024/04/11 05:42:17;;;;;;;5.80;2.83;;;12.20;78.70;;;;;;5461237;26;20253;-63
2024/04/11 05:44:48;;;;;;;5.23;2.00;;;12.20;77.10;;;;;;5454651;26;20759;-63
2024/04/11 05:47:15;;;;;;;3.33;2.33;;;12.30;70.10;;;;;;5448985;26;20299;-64
2024/04/11 05:49:46;;;;;;;7.87;2.70;;;12.30;65.30;;;;;;5455229;26;20345;-61
2024/04/11 05:52:13;;;;;;;7.77;2.40;;;12.30;70.30;;;;;;5455678;26;20305;-63
2024/04/11 05:54:44;;;;;;;8.17;2.83;;;12.30;70.40;;;;;;5454115;26;20258;-64
2024/04/11 05:57:14;;;;;;;10.63;2.97;;;12.30;72.30;;;;;;5440124;25;20249;-63
2024/04/11 05:59:45;;;;;;;8.87;2.93;;;12.30;70.20;;;;;;5453503;26;20300;-63
2024/04/11 06:02:13;;;;;;;5.30;2.60;;;12.40;69.50;;;;;;5451308;26;20618;-63
2024/04/11 06:04:45;;;;;;;8.50;2.57;;;12.40;69.80;;;;;;5448508;26;20760;-63
2024/04/11 06:07:14;;;;;;;5.27;2.57;;;12.40;72.90;;;;;;5457738;26;20233;-64
2024/04/11 06:09:44;;;;;;;8.80;2.70;;;12.30;79.90;;;;;;5442313;26;20250;-63
2024/04/11 06:12:14;;;;;;;4.40;2.50;;;12.30;82.10;;;;;;5452470;26;20249;-63
2024/04/11 06:14:44;;;;;;;12.70;2.80;;;12.40;86.40;;;;;;5456727;25;20290;-63
2024/04/11 06:17:12;;;;;;;2.60;2.10;;;12.30;89.60;;;;;;5449918;26;20249;-63
2024/04/11 06:19:43;;;;;;;4.53;2.30;;;12.40;90.60;;;;;;5446790;26;20279;-62
2024/04/11 06:22:11;;;;;;;6.17;2.50;;;12.40;92.00;;;;;;5448048;26;20235;-64
2024/04/11 06:24:41;;;;;;;9.57;2.80;;;12.40;93.40;;;;;;5452624;26;20325;-64
2024/04/11 06:27:09;;;;;;;5.07;2.60;;;12.40;96.80;;;;;;5453909;25;20599;-64
2024/04/11 06:29:43;;;;;;;7.03;2.80;;;12.40;96.90;;;;;;5460522;25;20647;-63
2024/04/11 06:32:12;;;;;;;10.50;2.90;;;12.40;99.90;;;;;;5460642;25;20280;-63
2024/04/11 06:34:43;;;;;;;6.60;2.80;;;12.40;99.90;;;;;;5457555;26;20607;-62
2024/04/11 06:37:11;;;;;;;8.30;2.60;;;12.40;99.90;;;;;;5458276;26;20263;-64
2024/04/11 06:39:41;;;;;;;6.77;3.10;;;12.40;99.90;;;;;;5452089;26;20292;-64
2024/04/11 06:42:13;;;;;;;9.47;2.73;;;12.40;99.90;;;;;;5450414;26;20325;-64
2024/04/11 06:44:48;;;;;;;6.57;2.87;;;12.40;99.90;;;;;;5453965;26;20265;-63
2024/04/11 06:47:18;;;;;;;7.60;3.00;;;12.40;99.90;;;;;;5443935;26;20257;-64
2024/04/11 06:50:01;;;;;;;8.57;2.77;;;12.40;99.90;;;;;;5451604;26;20265;-63
2024/04/11 06:52:29;;;;;;;8.23;2.87;;;12.50;99.90;;;;;;5462150;26;20232;-63
2024/04/11 06:54:59;;;;;;;8.37;2.50;;;12.50;99.90;;;;;;5446913;26;20304;-63
2024/04/11 06:57:27;;;;;;;8.63;3.40;;;12.50;99.90;;;;;;5453750;25;20296;-63
2024/04/11 07:00:00;;;;;;;6.53;3.00;;;12.60;99.90;;;;;;5452497;26;20303;-64
2024/04/11 07:02:30;;;;;;;6.50;2.80;;;12.60;99.90;;;;;;5457229;26;20244;-64
2024/04/11 07:05:02;;;;;;;15.13;3.07;;;12.70;99.90;;;;;;5452515;26;20269;-64
2024/04/11 07:07:30;;;;;;;6.13;2.80;;;12.70;99.90;;;;;;5455155;26;20237;-64
2024/04/11 07:10:15;;;;;;;8.77;2.70;;;12.70;99.90;;;;;;5453305;26;20244;-64
2024/04/11 07:12:43;;;;;;;7.17;2.93;;;12.80;99.90;;;;;;5456723;25;20275;-64
2024/04/11 07:15:18;;;;;;;6.57;3.27;;;12.80;99.90;;;;;;5449460;26;20271;-63
2024/04/11 07:17:56;;;;;;;7.53;3.63;;;12.80;99.90;;;;;;5449612;26;20264;-63
2024/04/11 07:20:31;;;;;;;9.93;3.23;;;12.90;99.90;;;;;;5451569;26;20544;-63
2024/04/11 07:22:58;;;;;;;9.13;3.10;;;12.90;99.90;;;;;;5446107;26;20368;-65
2024/04/11 07:25:32;;;;;;;6.07;2.80;;;12.80;99.90;;;;;;5458108;26;21839;-63
2024/04/11 07:28:00;;;;;;;5.70;3.03;;;12.70;99.90;;;;;;5452309;26;20303;-63
2024/04/11 07:30:33;;;;;;;6.47;2.83;;;12.70;99.90;;;;;;5443029;26;20249;-62
2024/04/11 07:33:06;;;;;;;13.40;3.60;;;12.70;99.90;;;;;;5458644;25;20245;-63
2024/04/11 07:35:39;;;;;;;4.77;2.87;;;12.70;99.90;;;;;;5455495;26;20256;-62
2024/04/11 07:38:07;;;;;;;7.50;3.00;;;12.60;99.90;;;;;;5458662;26;20255;-62
2024/04/11 07:40:45;;;;;;;10.83;3.27;;;12.70;99.90;;;;;;5451140;26;20241;-62
2024/04/11 07:43:13;;;;;;;15.57;3.70;;;12.70;99.90;;;;;;5447007;26;20598;-62
2024/04/11 07:45:46;;;;;;;5.53;3.00;;;12.70;99.90;;;;;;5444113;26;20249;-62
2024/04/11 07:48:16;;;;;;;7.43;3.47;;;12.70;99.90;;;;;;5453307;25;20261;-62
2024/04/11 07:50:49;;;;;;;4.87;3.30;;;12.60;99.90;;;;;;5448735;26;20248;-62
2024/04/11 07:53:16;;;;;;;6.43;3.10;;;12.70;99.90;;;;;;5451496;25;20331;-62
2024/04/11 07:55:49;;;;;;;9.40;3.10;;;12.70;99.90;;;;;;5448749;25;20233;-62
2024/04/11 07:58:18;;;;;;;12.03;3.73;;;12.70;99.90;;;;;;5446449;26;20342;-62
2024/04/11 08:00:54;;;;;;;9.70;3.80;;;12.70;99.90;;;;;;5452296;26;20261;-62
2024/04/11 08:03:22;;;;;;;13.53;3.80;;;12.70;99.90;;;;;;5449641;26;20858;-62
2024/04/11 08:05:52;;;;;;;10.53;3.57;;;12.70;99.90;;;;;;5445404;26;20781;-61
2024/04/11 08:08:20;;;;;;;11.80;3.93;;;12.70;99.90;;;;;;5442050;26;20257;-61
2024/04/11 08:11:02;;;;;;;5.63;4.23;;;12.70;99.90;;;;;;5450550;26;20893;-60
2024/04/11 08:13:30;;;;;;;14.43;4.50;;;12.80;99.90;;;;;;5450045;26;20279;-62
2024/04/11 08:16:09;;;;;;;14.63;4.23;;;12.80;99.90;;;;;;5459576;26;20263;-62
2024/04/11 08:18:37;;;;;;;9.23;4.00;;;12.80;99.90;;;;;;5450285;26;20253;-62
2024/04/11 08:21:11;;;;;;;10.00;3.80;;;12.90;99.90;;;;;;5443872;26;20902;-61
2024/04/11 08:23:39;;;;;;;14.60;3.93;;;12.90;99.90;;;;;;5456302;26;20303;-61
2024/04/11 08:26:12;;;;;;;15.73;4.20;;;12.90;99.90;;;;;;5449450;26;20323;-61
2024/04/11 08:28:41;;;;;;;10.93;4.03;;;12.90;99.90;;;;;;5452675;25;20237;-61
2024/04/11 08:31:15;;;;;;;8.43;4.33;;;13.00;99.90;;;;;;5455974;26;20812;-62
2024/04/11 08:33:42;;;;;;;7.33;4.03;;;13.10;99.90;;;;;;5446507;26;20292;-62
2024/04/11 08:36:13;;;;;;;7.90;4.27;;;13.20;99.90;;;;;;5445403;26;20254;-62
2024/04/11 08:38:41;;;;;;;8.90;3.70;;;13.30;99.90;;;;;;5451723;26;20248;-62
2024/04/11 08:41:12;;;;;;;6.77;4.00;;;13.40;99.90;;;;;;5453102;26;20800;-62
2024/04/11 08:43:40;;;;;;;7.70;4.00;;;13.50;99.90;;;;;;5448462;26;20287;-61
2024/04/11 08:46:14;;;;;;;8.90;4.20;;;13.60;99.90;;;;;;5453666;26;20232;-62
2024/04/11 08:48:42;;;;;;;6.97;4.00;;;13.70;99.90;;;;;;5451839;26;20268;-62
2024/04/11 08:51:19;;;;;;;8.60;4.13;;;13.70;99.90;;;;;;5450675;26;20316;-62
2024/04/11 08:53:49;;;;;;;8.97;4.00;;;13.70;99.90;;;;;;5441866;26;20575;-62
2024/04/11 08:56:32;;;;;;;9.23;4.73;;;13.70;99.90;;;;;;5445787;25;20329;-62
2024/04/11 08:59:00;;;;;;;8.43;3.87;;;13.80;99.90;;;;;;5443999;26;20266;-62
2024/04/11 09:01:33;;;;;;;8.10;4.10;;;13.80;99.90;;;;;;5450055;26;20983;-62
2024/04/11 09:04:02;;;;;;;6.77;3.83;;;13.70;99.90;;;;;;5447998;26;20252;-62
2024/04/11 09:06:35;;;;;;;5.30;4.00;;;13.90;99.90;;;;;;5444846;25;20281;-62
2024/04/11 09:09:09;;;;;;;7.87;3.60;;;14.00;99.90;;;;;;5454063;26;20254;-62
2024/04/11 09:11:44;;;;;;;11.27;3.67;;;14.40;99.90;;;;;;5448301;26;20249;-62
2024/04/11 09:14:12;;;;;;;4.57;3.60;;;15.10;99.90;;;;;;5455888;26;20712;-62
2024/04/11 09:16:45;;;;;;;6.83;3.47;;;15.60;99.90;;;;;;5451186;25;20243;-61
2024/04/11 09:19:13;;;;;;;4.37;3.53;;;16.10;99.90;;;;;;5454701;26;20248;-62
2024/04/11 09:21:47;;;;;;;6.50;3.70;;;16.10;99.90;;;;;;5460432;26;20316;-62
2024/04/11 09:24:16;;;;;;;8.13;3.90;;;15.70;99.90;;;;;;5459720;26;20310;-62
2024/04/11 09:26:48;;;;;;;6.27;3.90;;;15.60;99.90;;;;;;5462638;26;20256;-62
2024/04/11 09:29:17;;;;;;;8.30;4.20;;;15.60;99.90;;;;;;5458026;26;20267;-62
2024/04/11 09:31:58;;;;;;;10.23;3.87;;;15.60;99.90;;;;;;5452133;25;20242;-62
2024/04/11 09:34:30;;;;;;;6.40;3.97;;;15.70;99.90;;;;;;5447959;26;20237;-62
2024/04/11 09:37:04;;;;;;;4.53;3.40;;;15.70;99.90;;;;;;5447064;26;20301;-62
2024/04/11 09:39:45;;;;;;;5.07;3.80;;;15.60;99.90;;;;;;5452679;26;20947;-62
2024/04/11 09:42:19;;;;;;;6.20;3.60;;;15.40;99.90;;;;;;5453485;26;20252;-62
2024/04/11 09:44:50;;;;;;;6.07;4.10;;;15.50;99.90;;;;;;5454138;25;20364;-62
2024/04/11 09:47:26;;;;;;;8.57;4.53;;;15.60;99.90;;;;;;5456000;26;20277;-61
2024/04/11 09:49:59;;;;;;;5.53;3.97;;;15.50;99.90;;;;;;5457827;25;20238;-61
2024/04/11 09:52:34;;;;;;;8.63;4.00;;;15.30;99.90;;;;;;5453971;26;20340;-63
2024/04/11 09:55:04;;;;;;;7.40;4.43;;;15.00;99.90;;;;;;5459297;26;20260;-62
2024/04/11 09:57:36;;;;;;;7.10;4.93;;;14.80;99.90;;;;;;5451210;25;20259;-62
2024/04/11 10:00:18;;;;;;;6.73;4.67;;;14.70;99.90;;;;;;5444078;26;20257;-62
2024/04/11 10:02:54;;;;;;;6.67;4.30;;;14.80;99.90;;;;;;5459065;26;20298;-62
2024/04/11 10:05:25;;;;;;;9.03;4.70;;;14.90;99.90;;;;;;5454210;26;20297;-62
2024/04/11 10:08:02;;;;;;;7.03;4.83;;;15.00;99.90;;;;;;5450781;26;20304;-62
2024/04/11 10:10:33;;;;;;;5.97;4.20;;;15.10;99.90;;;;;;5452345;26;20242;-62
2024/04/11 10:13:04;;;;;;;5.33;4.40;;;15.30;99.90;;;;;;5451117;26;20310;-62
2024/04/11 10:15:33;;;;;;;8.60;4.40;;;15.40;99.90;;;;;;5452400;26;20297;-62
2024/04/11 10:18:10;;;;;;;11.20;5.07;;;15.70;99.90;;;;;;5453844;25;20296;-62
2024/04/11 10:20:42;;;;;;;15.27;4.40;;;16.30;99.90;;;;;;5456862;26;20298;-63
2024/04/11 10:23:15;;;;;;;6.67;4.27;;;16.70;99.90;;;;;;5449280;26;20254;-63
2024/04/11 10:25:49;;;;;;;8.27;4.13;;;16.80;99.90;;;;;;5457273;26;20406;-63
2024/04/11 10:28:20;;;;;;;5.67;3.70;;;17.00;99.90;;;;;;5458251;26;20501;-63
2024/04/11 10:30:51;;;;;;;6.77;4.00;;;17.20;99.90;;;;;;5454258;26;20939;-63
2024/04/11 10:33:29;;;;;;;6.80;3.63;;;17.30;99.90;;;;;;5458241;26;20333;-63
2024/04/11 10:36:06;;;;;;;5.93;4.07;;;17.20;99.90;;;;;;5451707;26;20279;-63
2024/04/11 10:38:37;;;;;;;4.53;4.13;;;17.00;99.90;;;;;;5455852;26;20266;-63
2024/04/11 10:41:08;;;;;;;5.50;4.20;;;16.50;99.90;;;;;;5449096;26;20746;-63
2024/04/11 10:43:38;;;;;;;7.73;4.50;;;16.30;92.50;;;;;;5448284;26;20260;-63
2024/04/11 10:46:12;;;;;;;5.97;4.17;;;16.20;90.40;;;;;;5450879;26;20245;-63
2024/04/11 10:48:46;;;;;;;5.37;4.53;;;16.10;83.40;;;;;;5453674;26;20279;-63
2024/04/11 10:51:14;;;;;;;8.07;4.70;;;16.00;82.10;;;;;;5446915;26;20689;-63
2024/04/11 10:53:54;;;;;;;7.17;4.37;;;15.90;58.60;;;;;;5460511;25;20718;-63
2024/04/11 10:56:23;;;;;;;8.27;4.50;;;15.90;80.60;;;;;;5448921;26;20252;-63
2024/04/11 10:58:53;;;;;;;7.10;4.40;;;15.90;73.90;;;;;;5455515;26;20242;-63
2024/04/11 11:01:26;;;;;;;7.97;5.23;;;15.90;67.00;;;;;;5448132;26;20276;-63
2024/04/11 11:04:00;;;;;;;5.67;4.50;;;15.90;85.50;;;;;;5444556;26;20370;-63
2024/04/11 11:06:34;;;;;;;5.83;4.77;;;15.90;81.10;;;;;;5451211;26;20354;-63
2024/04/11 11:09:13;;;;;;;5.57;4.50;;;15.90;96.00;;;;;;5455549;26;20258;-63
2024/04/11 11:11:43;;;;;;;5.57;4.80;;;15.90;95.80;;;;;;5457412;26;20606;-62
2024/04/11 11:14:17;;;;;;;6.40;4.10;;;15.90;77.40;;;;;;5447735;26;20755;-62
2024/04/11 11:16:47;;;;;;;7.40;4.73;;;15.80;93.20;;;;;;5447899;26;20246;-62
2024/04/11 11:19:22;;;;;;;9.90;4.63;;;15.90;94.80;;;;;;5453660;26;20549;-63
2024/04/11 11:21:51;;;;;;;4.70;4.30;;;15.90;79.70;;;;;;5438741;26;20321;-63
2024/04/11 11:24:23;;;;;;;4.77;4.47;;;15.90;67.00;;;;;;5442106;26;20282;-62
2024/04/11 11:26:55;;;;;;;4.43;4.03;;;15.90;52.40;;;;;;5448968;26;20275;-63
2024/04/11 11:29:28;;;;;;;6.83;4.60;;;15.90;87.90;;;;;;5451506;26;20257;-63
2024/04/11 11:32:01;;;;;;;7.33;4.27;;;16.00;99.50;;;;;;5450812;26;20314;-62
2024/04/11 11:34:42;;;;;;;6.17;4.20;;;16.10;88.80;;;;;;5446218;26;20247;-63
2024/04/11 11:37:12;;;;;;;3.97;3.70;;;16.00;70.10;;;;;;5457244;26;20241;-63
2024/04/11 11:39:50;;;;;;;9.37;4.30;;;15.90;60.00;;;;;;5460685;25;20263;-63
2024/04/11 11:42:23;;;;;;;4.60;4.20;;;15.90;71.90;;;;;;5457562;26;20283;-64
2024/04/11 11:45:16;;;;;;;8.57;3.90;;;15.90;72.10;;;;;;5446296;26;20590;-63
2024/04/11 11:47:45;;;;;;;6.33;3.63;;;15.90;58.70;;;;;;5449365;26;20258;-63
2024/04/11 11:50:35;;;;;;;4.80;4.27;;;15.70;27.10;;;;;;5453918;25;20244;-62
2024/04/11 11:53:24;;;;;;;4.77;4.30;;;15.80;76.60;;;;;;5446878;26;20805;-63
2024/04/11 11:55:58;;;;;;;8.77;4.50;;;15.80;59.10;;;;;;5452859;26;20239;-63
2024/04/11 11:58:34;;;;;;;4.97;4.47;;;15.80;80.90;;;;;;5454055;26;20749;-63
2024/04/11 12:01:19;;;;;;;5.10;4.73;;;15.70;92.50;;;;;;5443114;26;20281;-63
2024/04/11 12:03:55;;;;;;;5.47;4.57;;;15.70;93.50;;;;;;5453138;26;20249;-63
2024/04/11 12:06:33;;;;;;;4.90;4.50;;;15.70;90.90;;;;;;5450119;26;20292;-63
2024/04/11 12:09:10;;;;;;;5.30;4.80;;;15.80;74.60;;;;;;5451574;26;20254;-63
2024/04/11 12:11:49;;;;;;;5.13;4.67;;;15.80;67.60;;;;;;5453476;26;21302;-63
2024/04/11 12:14:28;;;;;;;7.83;4.70;;;15.90;85.40;;;;;;5449305;26;20284;-63
2024/04/11 12:17:02;;;;;;;4.70;4.30;;;16.00;91.90;;;;;;5457400;26;20237;-64
2024/04/11 12:19:35;;;;;;;5.80;4.20;;;16.10;55.40;;;;;;5462564;26;20228;-63
2024/04/11 12:22:16;;;;;;;3.83;3.53;;;16.10;57.00;;;;;;5450896;26;20342;-63
2024/04/11 12:24:45;;;;;;;4.27;3.90;;;16.20;43.70;;;;;;5451930;26;20405;-63
2024/04/11 12:27:16;;;;;;;4.00;3.80;;;16.20;39.50;;;;;;5475129;26;20877;-63
2024/04/11 12:29:48;;;;;;;4.83;4.03;;;16.20;28.30;;;;;;5456058;26;20258;-63
2024/04/11 12:32:20;;;;;;;4.53;4.23;;;16.10;10.80;;;;;;5453748;26;20254;-62
2024/04/11 12:34:47;;;;;;;6.83;5.37;;;16.10;33.50;;;;;;5451963;26;20237;-62
2024/04/11 12:37:24;;;;;;;5.43;4.17;;;16.20;61.60;;;;;;5456194;26;20307;-62
2024/04/11 12:39:53;;;;;;;4.40;4.00;;;16.20;28.70;;;;;;5444342;26;20256;-64
2024/04/11 12:42:29;;;;;;;5.07;3.90;;;16.10;41.20;;;;;;5453999;26;20972;-63
2024/04/11 12:45:00;;;;;;;6.40;4.33;;;16.10;50.50;;;;;;5462128;26;21151;-62
2024/04/11 12:47:38;;;;;;;4.40;4.10;;;16.10;46.90;;;;;;5440016;26;20359;-62
2024/04/11 12:50:12;;;;;;;5.53;4.33;;;16.10;55.30;;;;;;5458923;26;20297;-61
2024/04/11 12:52:49;;;;;;;6.43;4.00;;;16.10;40.60;;;;;;5452659;26;20232;-61
2024/04/11 12:55:24;;;;;;;4.40;4.00;;;15.90;63.10;;;;;;5445823;26;20232;-63
2024/04/11 12:58:06;;;;;;;4.67;4.10;;;15.90;67.40;;;;;;5444630;26;20290;-62
2024/04/11 13:00:35;;;;;;;4.13;3.80;;;15.90;70.80;;;;;;5457759;26;20303;-63
2024/04/11 13:03:19;;;;;;;4.63;3.83;;;15.90;42.30;;;;;;5446854;26;20298;-63
2024/04/11 13:05:53;;;;;;;4.70;3.80;;;16.00;48.70;;;;;;5445672;26;20263;-63
2024/04/11 13:08:29;;;;;;;6.17;4.13;;;16.10;45.60;;;;;;5454520;26;20295;-63
2024/04/11 13:11:06;;;;;;;7.60;4.60;;;16.10;52.50;;;;;;5457049;26;20258;-63